• Join FlightAware (Why Join?)
  • Login
  • US Flag 
11:33AM EST


 

Airport Tracker/Info


-or-


 

Live Flight TrackerFlight Track Log ✈ TCF642 ✈ 29-Oct-2013 ✈ KORD - KIND

Flight Track Log - Related Links

Times and Time Zones

All times are in EDT time to prevent confusion due to time zone crossing. See the TCF642 flight status page for this flight to view local times or setup timezone preferences in your user account.

Time Position Orientation Groundspeed Altitude Reporting Facility
EDT Latitude Longitude Course Direction KTS MPH feet Rate Location/Type
03:06PM 41.9333 -87.8667 159° South 189 217 3,100  Level Chicago TRACON
03:07PM 41.8760 -87.8690 176° South 250 288 4,600 1,140 Climbing FlightAware
03:07PM 41.8640 -87.8670 173° South 252 290 4,700 120 Climbing FlightAware
03:08PM 41.8390 -87.8650 177° South 252 290 4,700 2,040 Level FlightAware
03:11PM 41.6440 -87.7053 159° South  Level FlightAware Approximate
03:12PM 41.5470 -87.6980 159° South 252 290 14,000  Level FlightAware
03:12PM 41.5120 -87.6620 142° Southeast 377 434 14,600 1,500 Climbing FlightAware
03:13PM 41.4380 -87.5880 143° Southeast 401 461 15,900 1,500 Climbing FlightAware
03:14PM 41.3880 -87.5530 152° Southeast 403 464 16,600 1,800 Climbing FlightAware
03:14PM 41.3200 -87.5150 157° South 407 468 18,000 1,920 Climbing FlightAware
03:15PM 41.2540 -87.4780 157° South 421 484 19,200 1,680 Climbing FlightAware
03:16PM 41.1730 -87.4330 157° South 444 511 20,300 1,080 Climbing FlightAware
03:17PM 41.0580 -87.3690 157° South 509 586 21,000 300 Climbing FlightAware
03:18PM 40.9330 -87.2990 157° South 420 483 21,000  Level FlightAware
03:18PM 40.8720 -87.2650 157° South 470 541 21,000  Level FlightAware
03:19PM 40.8160 -87.2340 157° South 461 531 21,000  Level FlightAware
03:19PM 40.7390 -87.1910 157° South 444 511 21,000  Level FlightAware
03:20PM 40.7000 -87.1690 157° South 428 493 21,000  Level FlightAware
03:20PM 40.6480 -87.1410 158° South 437 503 21,000  Level FlightAware
03:21PM 40.5690 -87.0970 157° South 437 503 21,000  Level FlightAware
03:22PM 40.5120 -87.0650 157° South 437 503 21,000  Level FlightAware
03:22PM 40.4550 -87.0330 157° South 437 503 21,000  Level FlightAware
03:23PM 40.3980 -87.0010 157° South 437 503 21,000  Level FlightAware
03:24PM 40.3030 -86.9490 157° South 437 503 21,000  Level FlightAware
03:24PM 40.2830 -86.9370 155° Southeast 437 503 21,000 -5,400 Level FlightAware
03:25PM 40.1186 -86.8094 155° Southeast 353 406 12,900 -4,560 Descending Chicago Center
03:26PM 40.0678 -86.7333 131° Southeast 348 400 11,600 -1,620 Descending Indianapolis Center
03:27PM 40.0050 -86.6428 132° Southeast 343 395 10,000 -780 Descending Indianapolis Center
03:28PM 39.9444 -86.5553 132° Southeast 331 381 10,000 -300 Level Indianapolis Center
03:29PM 39.8892 -86.4753 132° Southeast 307 353 9,500 -1,320 Descending Indianapolis Center
03:30PM 39.8125 -86.4219 152° Southeast 273 314 7,300 -1,680 Descending Indianapolis Center
03:31PM 39.7497 -86.4258 183° South 263 303 6,100 -1,140 Descending Indianapolis Center
03:32PM 39.7025 -86.4944 228° Southwest 258 297 5,000 -780 Descending Indianapolis Center
03:33PM 39.6461 -86.4889 176° South 264 304 4,500 -1,140 Descending Indianapolis Center
03:34PM 39.6483 -86.3972 88° East 231 266 2,700 -1,500 Descending Indianapolis Center
03:35PM 39.6842 -86.3494 46° Northeast 204 235 1,500 -1,020 Descending Indianapolis Center
03:36PM 39.7094 -86.3169 45° Northeast 161 185 700 -420 Descending Indianapolis Center
03:37PM 39.7300 -86.2906 45° Northeast 146 168 700  Level Indianapolis Center